sensor_id;sensor_type;location;lat;lon;timestamp;P1;P2;P0
84927;PMS7003;75189;50.640;19.242;2024-01-06T00:05:03;14;9;5
84927;PMS7003;75189;50.640;19.242;2024-01-06T00:11:11;14;11;7
84927;PMS7003;75189;50.640;19.242;2024-01-06T00:17:36;22;15;9
84927;PMS7003;75189;50.640;19.242;2024-01-06T00:23:43;38;25;15
84927;PMS7003;75189;50.640;19.242;2024-01-06T00:29:50;32;19;12
84927;PMS7003;75189;50.640;19.242;2024-01-06T00:35:57;17;10;5
84927;PMS7003;75189;50.640;19.242;2024-01-06T00:42:04;19;17;9
84927;PMS7003;75189;50.640;19.242;2024-01-06T00:48:11;10;8;4
84927;PMS7003;75189;50.640;19.242;2024-01-06T00:54:18;18;12;7
84927;PMS7003;75189;50.640;19.242;2024-01-06T01:00:25;9;6;3
84927;PMS7003;75189;50.640;19.242;2024-01-06T01:06:53;14;12;7
84927;PMS7003;75189;50.640;19.242;2024-01-06T01:13:00;15;12;7
84927;PMS7003;75189;50.640;19.242;2024-01-06T01:19:07;25;19;12
84927;PMS7003;75189;50.640;19.242;2024-01-06T01:25:14;22;16;9
84927;PMS7003;75189;50.640;19.242;2024-01-06T01:31:21;23;17;10
84927;PMS7003;75189;50.640;19.242;2024-01-06T01:37:28;17;13;8
84927;PMS7003;75189;50.640;19.242;2024-01-06T01:43:35;12;8;4
84927;PMS7003;75189;50.640;19.242;2024-01-06T01:49:46;16;12;7
84927;PMS7003;75189;50.640;19.242;2024-01-06T01:56:10;12;9;6
84927;PMS7003;75189;50.640;19.242;2024-01-06T02:02:19;19;13;7
84927;PMS7003;75189;50.640;19.242;2024-01-06T02:08:28;9;7;3
84927;PMS7003;75189;50.640;19.242;2024-01-06T02:14:35;25;17;11
84927;PMS7003;75189;50.640;19.242;2024-01-06T02:20:43;22;17;11
84927;PMS7003;75189;50.640;19.242;2024-01-06T02:26:51;28;18;9
84927;PMS7003;75189;50.640;19.242;2024-01-06T02:32:58;16;11;7
84927;PMS7003;75189;50.640;19.242;2024-01-06T02:39:05;17;9;6
84927;PMS7003;75189;50.640;19.242;2024-01-06T02:45:27;24;16;10
84927;PMS7003;75189;50.640;19.242;2024-01-06T02:51:34;20;15;9
84927;PMS7003;75189;50.640;19.242;2024-01-06T02:57:41;13;11;7
84927;PMS7003;75189;50.640;19.242;2024-01-06T03:03:48;19;13;7
84927;PMS7003;75189;50.640;19.242;2024-01-06T03:09:55;25;18;12
84927;PMS7003;75189;50.640;19.242;2024-01-06T03:16:03;18;14;8
84927;PMS7003;75189;50.640;19.242;2024-01-06T03:22:12;16;12;7
84927;PMS7003;75189;50.640;19.242;2024-01-06T03:28:19;9;6;3
84927;PMS7003;75189;50.640;19.242;2024-01-06T03:34:45;19;15;8
84927;PMS7003;75189;50.640;19.242;2024-01-06T03:40:52;11;6;3
84927;PMS7003;75189;50.640;19.242;2024-01-06T03:46:59;24;19;12
84927;PMS7003;75189;50.640;19.242;2024-01-06T03:53:06;20;16;10
84927;PMS7003;75189;50.640;19.242;2024-01-06T03:59:13;18;16;9
84927;PMS7003;75189;50.640;19.242;2024-01-06T04:05:20;17;12;7
84927;PMS7003;75189;50.640;19.242;2024-01-06T04:11:27;16;12;7
84927;PMS7003;75189;50.640;19.242;2024-01-06T04:17:34;14;9;4
84927;PMS7003;75189;50.640;19.242;2024-01-06T04:24:03;26;19;13
84927;PMS7003;75189;50.640;19.242;2024-01-06T04:30:10;16;11;7
84927;PMS7003;75189;50.640;19.242;2024-01-06T04:36:18;13;9;6
84927;PMS7003;75189;50.640;19.242;2024-01-06T04:42:25;15;9;6
84927;PMS7003;75189;50.640;19.242;2024-01-06T04:48:32;20;14;9
84927;PMS7003;75189;50.640;19.242;2024-01-06T04:54:39;16;12;8
84927;PMS7003;75189;50.640;19.242;2024-01-06T05:00:46;28;22;13
84927;PMS7003;75189;50.640;19.242;2024-01-06T05:06:53;15;10;6
84927;PMS7003;75189;50.640;19.242;2024-01-06T05:13:20;26;18;11
84927;PMS7003;75189;50.640;19.242;2024-01-06T05:19:27;26;19;12
84927;PMS7003;75189;50.640;19.242;2024-01-06T05:25:34;34;26;16
84927;PMS7003;75189;50.640;19.242;2024-01-06T05:31:41;16;9;5
84927;PMS7003;75189;50.640;19.242;2024-01-06T05:37:48;27;19;12
84927;PMS7003;75189;50.640;19.242;2024-01-06T05:43:55;27;20;13
84927;PMS7003;75189;50.640;19.242;2024-01-06T05:50:04;22;15;10
84927;PMS7003;75189;50.640;19.242;2024-01-06T05:56:18;24;20;12
84927;PMS7003;75189;50.640;19.242;2024-01-06T06:02:37;39;30;17
84927;PMS7003;75189;50.640;19.242;2024-01-06T06:08:46;19;16;11
84927;PMS7003;75189;50.640;19.242;2024-01-06T06:14:55;16;13;8
84927;PMS7003;75189;50.640;19.242;2024-01-06T06:21:02;21;18;10
84927;PMS7003;75189;50.640;19.242;2024-01-06T06:27:10;21;19;11
84927;PMS7003;75189;50.640;19.242;2024-01-06T06:33:17;23;17;10
84927;PMS7003;75189;50.640;19.242;2024-01-06T06:39:24;34;25;17
84927;PMS7003;75189;50.640;19.242;2024-01-06T06:45:33;36;27;15
84927;PMS7003;75189;50.640;19.242;2024-01-06T06:51:54;27;21;12
84927;PMS7003;75189;50.640;19.242;2024-01-06T06:58:02;31;23;13
84927;PMS7003;75189;50.640;19.242;2024-01-06T07:04:09;30;24;14
84927;PMS7003;75189;50.640;19.242;2024-01-06T07:10:16;33;24;16
84927;PMS7003;75189;50.640;19.242;2024-01-06T07:16:24;34;25;15
84927;PMS7003;75189;50.640;19.242;2024-01-06T07:22:31;31;24;14
84927;PMS7003;75189;50.640;19.242;2024-01-06T07:28:38;18;15;10
84927;PMS7003;75189;50.640;19.242;2024-01-06T07:34:45;29;27;15
84927;PMS7003;75189;50.640;19.242;2024-01-06T07:41:11;32;23;14
84927;PMS7003;75189;50.640;19.242;2024-01-06T07:47:18;38;28;16
84927;PMS7003;75189;50.640;19.242;2024-01-06T07:53:25;42;29;17
84927;PMS7003;75189;50.640;19.242;2024-01-06T07:59:32;27;20;12
84927;PMS7003;75189;50.640;19.242;2024-01-06T08:05:39;32;25;17
84927;PMS7003;75189;50.640;19.242;2024-01-06T08:11:46;37;24;15
84927;PMS7003;75189;50.640;19.242;2024-01-06T08:17:54;43;26;13
84927;PMS7003;75189;50.640;19.242;2024-01-06T08:24:01;67;49;30
84927;PMS7003;75189;50.640;19.242;2024-01-06T08:30:29;33;23;14
84927;PMS7003;75189;50.640;19.242;2024-01-06T08:36:36;39;32;19
84927;PMS7003;75189;50.640;19.242;2024-01-06T08:42:43;32;24;13
84927;PMS7003;75189;50.640;19.242;2024-01-06T08:48:50;31;24;14
84927;PMS7003;75189;50.640;19.242;2024-01-06T08:54:57;35;20;10
84927;PMS7003;75189;50.640;19.242;2024-01-06T09:01:04;33;25;15
84927;PMS7003;75189;50.640;19.242;2024-01-06T09:07:11;34;26;17
84927;PMS7003;75189;50.640;19.242;2024-01-06T09:13:18;37;30;19
84927;PMS7003;75189;50.640;19.242;2024-01-06T09:19:47;34;20;15
84927;PMS7003;75189;50.640;19.242;2024-01-06T09:25:55;37;28;16
84927;PMS7003;75189;50.640;19.242;2024-01-06T09:32:02;27;19;12
84927;PMS7003;75189;50.640;19.242;2024-01-06T09:38:10;37;29;17
84927;PMS7003;75189;50.640;19.242;2024-01-06T09:44:17;25;19;12
84927;PMS7003;75189;50.640;19.242;2024-01-06T09:50:24;26;21;13
84927;PMS7003;75189;50.640;19.242;2024-01-06T09:56:32;27;21;13
84927;PMS7003;75189;50.640;19.242;2024-01-06T10:02:39;25;19;13
84927;PMS7003;75189;50.640;19.242;2024-01-06T10:09:04;44;35;22
84927;PMS7003;75189;50.640;19.242;2024-01-06T10:15:12;31;24;15
84927;PMS7003;75189;50.640;19.242;2024-01-06T10:21:19;24;21;12
84927;PMS7003;75189;50.640;19.242;2024-01-06T10:27:28;30;25;17
84927;PMS7003;75189;50.640;19.242;2024-01-06T10:33:35;34;28;18
84927;PMS7003;75189;50.640;19.242;2024-01-06T10:39:42;27;21;13
84927;PMS7003;75189;50.640;19.242;2024-01-06T10:45:50;36;31;19
84927;PMS7003;75189;50.640;19.242;2024-01-06T10:51:58;34;28;17
84927;PMS7003;75189;50.640;19.242;2024-01-06T10:58:21;28;18;12
84927;PMS7003;75189;50.640;19.242;2024-01-06T11:04:29;19;14;10
84927;PMS7003;75189;50.640;19.242;2024-01-06T11:10:37;22;13;8
84927;PMS7003;75189;50.640;19.242;2024-01-06T11:16:45;20;17;11
84927;PMS7003;75189;50.640;19.242;2024-01-06T11:22:53;20;15;8
84927;PMS7003;75189;50.640;19.242;2024-01-06T11:29:00;33;18;11
84927;PMS7003;75189;50.640;19.242;2024-01-06T11:35:09;28;22;13
84927;PMS7003;75189;50.640;19.242;2024-01-06T11:47:40;31;25;15
84927;PMS7003;75189;50.640;19.242;2024-01-06T11:53:52;39;32;18
84927;PMS7003;75189;50.640;19.242;2024-01-06T12:00:00;31;22;14
84927;PMS7003;75189;50.640;19.242;2024-01-06T12:11:24;51;39;24
84927;PMS7003;75189;50.640;19.242;2024-01-06T12:17:52;46;27;15
84927;PMS7003;75189;50.640;19.242;2024-01-06T12:23:53;39;25;17
84927;PMS7003;75189;50.640;19.242;2024-01-06T12:30:00;34;27;17
84927;PMS7003;75189;50.640;19.242;2024-01-06T12:36:09;37;26;15
84927;PMS7003;75189;50.640;19.242;2024-01-06T12:42:18;29;25;15
84927;PMS7003;75189;50.640;19.242;2024-01-06T12:48:29;26;18;10
84927;PMS7003;75189;50.640;19.242;2024-01-06T12:54:44;31;21;15
84927;PMS7003;75189;50.640;19.242;2024-01-06T13:00:51;34;25;15
84927;PMS7003;75189;50.640;19.242;2024-01-06T13:06:58;30;22;13
84927;PMS7003;75189;50.640;19.242;2024-01-06T13:13:05;33;20;11
84927;PMS7003;75189;50.640;19.242;2024-01-06T13:19:13;23;20;14
84927;PMS7003;75189;50.640;19.242;2024-01-06T13:25:20;45;25;15
84927;PMS7003;75189;50.640;19.242;2024-01-06T13:31:29;35;22;13
84927;PMS7003;75189;50.640;19.242;2024-01-06T13:37:37;43;32;20
84927;PMS7003;75189;50.640;19.242;2024-01-06T13:44:01;24;20;13
84927;PMS7003;75189;50.640;19.242;2024-01-06T13:50:09;23;17;9
84927;PMS7003;75189;50.640;19.242;2024-01-06T13:56:17;25;16;10
84927;PMS7003;75189;50.640;19.242;2024-01-06T14:02:24;30;20;12
84927;PMS7003;75189;50.640;19.242;2024-01-06T14:08:31;31;20;12
84927;PMS7003;75189;50.640;19.242;2024-01-06T14:14:37;24;19;11
84927;PMS7003;75189;50.640;19.242;2024-01-06T14:20:45;24;18;11
84927;PMS7003;75189;50.640;19.242;2024-01-06T14:26:54;15;14;8
84927;PMS7003;75189;50.640;19.242;2024-01-06T14:33:19;17;16;7
84927;PMS7003;75189;50.640;19.242;2024-01-06T14:39:26;28;19;12
84927;PMS7003;75189;50.640;19.242;2024-01-06T14:45:36;18;16;10
84927;PMS7003;75189;50.640;19.242;2024-01-06T14:51:45;18;17;10
84927;PMS7003;75189;50.640;19.242;2024-01-06T14:57:53;37;26;16
84927;PMS7003;75189;50.640;19.242;2024-01-06T15:03:59;32;24;15
84927;PMS7003;75189;50.640;19.242;2024-01-06T15:10:09;18;14;10
84927;PMS7003;75189;50.640;19.242;2024-01-06T15:16:18;46;36;20
84927;PMS7003;75189;50.640;19.242;2024-01-06T15:22:36;29;21;13
84927;PMS7003;75189;50.640;19.242;2024-01-06T15:28:43;28;21;12
84927;PMS7003;75189;50.640;19.242;2024-01-06T15:34:49;23;19;11
84927;PMS7003;75189;50.640;19.242;2024-01-06T15:40:56;27;22;14
84927;PMS7003;75189;50.640;19.242;2024-01-06T15:47:04;26;18;12
84927;PMS7003;75189;50.640;19.242;2024-01-06T15:53:12;22;18;12
84927;PMS7003;75189;50.640;19.242;2024-01-06T15:59:24;31;19;11
84927;PMS7003;75189;50.640;19.242;2024-01-06T16:05:32;23;17;11
84927;PMS7003;75189;50.640;19.242;2024-01-06T16:11:53;19;16;11
84927;PMS7003;75189;50.640;19.242;2024-01-06T16:18:08;23;16;11
84927;PMS7003;75189;50.640;19.242;2024-01-06T16:24:16;24;14;8
84927;PMS7003;75189;50.640;19.242;2024-01-06T16:30:24;24;21;12
84927;PMS7003;75189;50.640;19.242;2024-01-06T16:36:32;24;17;11
84927;PMS7003;75189;50.640;19.242;2024-01-06T16:42:39;25;20;11
84927;PMS7003;75189;50.640;19.242;2024-01-06T16:48:47;22;17;10
84927;PMS7003;75189;50.640;19.242;2024-01-06T16:54:54;20;17;9
84927;PMS7003;75189;50.640;19.242;2024-01-06T17:01:10;22;15;10
84927;PMS7003;75189;50.640;19.242;2024-01-06T17:07:21;32;22;12
84927;PMS7003;75189;50.640;19.242;2024-01-06T17:13:29;36;20;12
84927;PMS7003;75189;50.640;19.242;2024-01-06T17:19:35;19;15;7
84927;PMS7003;75189;50.640;19.242;2024-01-06T17:25:42;15;11;7
84927;PMS7003;75189;50.640;19.242;2024-01-06T17:31:49;14;10;7
84927;PMS7003;75189;50.640;19.242;2024-01-06T17:37:57;14;11;7
84927;PMS7003;75189;50.640;19.242;2024-01-06T17:44:04;15;12;6
84927;PMS7003;75189;50.640;19.242;2024-01-06T17:50:28;15;13;8
84927;PMS7003;75189;50.640;19.242;2024-01-06T17:56:35;15;10;6
84927;PMS7003;75189;50.640;19.242;2024-01-06T18:02:42;12;6;4
84927;PMS7003;75189;50.640;19.242;2024-01-06T18:08:52;9;7;4
84927;PMS7003;75189;50.640;19.242;2024-01-06T18:15:00;14;12;7
84927;PMS7003;75189;50.640;19.242;2024-01-06T18:21:07;13;10;7
84927;PMS7003;75189;50.640;19.242;2024-01-06T18:27:15;11;8;4
84927;PMS7003;75189;50.640;19.242;2024-01-06T18:33:22;13;10;6
84927;PMS7003;75189;50.640;19.242;2024-01-06T18:39:45;36;26;15
84927;PMS7003;75189;50.640;19.242;2024-01-06T18:45:51;14;9;6
84927;PMS7003;75189;50.640;19.242;2024-01-06T18:51:59;31;21;12
84927;PMS7003;75189;50.640;19.242;2024-01-06T18:58:06;11;7;5
84927;PMS7003;75189;50.640;19.242;2024-01-06T19:04:14;11;10;6
84927;PMS7003;75189;50.640;19.242;2024-01-06T19:10:21;15;11;7
84927;PMS7003;75189;50.640;19.242;2024-01-06T19:16:28;14;13;10
84927;PMS7003;75189;50.640;19.242;2024-01-06T19:22:35;22;14;8
84927;PMS7003;75189;50.640;19.242;2024-01-06T19:29:02;11;10;6
84927;PMS7003;75189;50.640;19.242;2024-01-06T19:35:10;15;11;6
84927;PMS7003;75189;50.640;19.242;2024-01-06T19:41:16;13;10;7
84927;PMS7003;75189;50.640;19.242;2024-01-06T19:47:23;16;14;8
84927;PMS7003;75189;50.640;19.242;2024-01-06T19:53:31;16;12;8
84927;PMS7003;75189;50.640;19.242;2024-01-06T19:59:40;23;16;8
84927;PMS7003;75189;50.640;19.242;2024-01-06T20:05:46;9;8;5
84927;PMS7003;75189;50.640;19.242;2024-01-06T20:11:53;18;12;7
84927;PMS7003;75189;50.640;19.242;2024-01-06T20:18:20;18;13;8
84927;PMS7003;75189;50.640;19.242;2024-01-06T20:24:29;20;15;9
84927;PMS7003;75189;50.640;19.242;2024-01-06T20:30:38;20;16;8
84927;PMS7003;75189;50.640;19.242;2024-01-06T20:36:46;16;12;7
84927;PMS7003;75189;50.640;19.242;2024-01-06T20:42:53;17;10;6
84927;PMS7003;75189;50.640;19.242;2024-01-06T20:49:00;18;12;8
84927;PMS7003;75189;50.640;19.242;2024-01-06T20:55:11;18;13;9
84927;PMS7003;75189;50.640;19.242;2024-01-06T21:01:19;20;15;8
84927;PMS7003;75189;50.640;19.242;2024-01-06T21:07:37;14;11;5
84927;PMS7003;75189;50.640;19.242;2024-01-06T21:13:48;16;11;7
84927;PMS7003;75189;50.640;19.242;2024-01-06T21:19:57;14;9;6
84927;PMS7003;75189;50.640;19.242;2024-01-06T21:26:08;14;9;6
84927;PMS7003;75189;50.640;19.242;2024-01-06T21:32:14;11;9;5
84927;PMS7003;75189;50.640;19.242;2024-01-06T21:38:21;11;9;5
84927;PMS7003;75189;50.640;19.242;2024-01-06T21:44:28;7;7;4
84927;PMS7003;75189;50.640;19.242;2024-01-06T21:50:35;12;9;5
84927;PMS7003;75189;50.640;19.242;2024-01-06T21:56:54;15;13;7
84927;PMS7003;75189;50.640;19.242;2024-01-06T22:03:02;9;7;4
84927;PMS7003;75189;50.640;19.242;2024-01-06T22:09:11;13;8;5
84927;PMS7003;75189;50.640;19.242;2024-01-06T22:15:18;12;10;7
84927;PMS7003;75189;50.640;19.242;2024-01-06T22:21:24;9;6;3
84927;PMS7003;75189;50.640;19.242;2024-01-06T22:27:31;12;6;4
84927;PMS7003;75189;50.640;19.242;2024-01-06T22:33:38;8;6;3
84927;PMS7003;75189;50.640;19.242;2024-01-06T22:39:45;11;8;5
84927;PMS7003;75189;50.640;19.242;2024-01-06T22:46:12;11;9;7
84927;PMS7003;75189;50.640;19.242;2024-01-06T22:52:19;9;8;6
84927;PMS7003;75189;50.640;19.242;2024-01-06T22:58:26;9;7;5
84927;PMS7003;75189;50.640;19.242;2024-01-06T23:04:34;7;5;3
84927;PMS7003;75189;50.640;19.242;2024-01-06T23:10:43;3;2;0
84927;PMS7003;75189;50.640;19.242;2024-01-06T23:16:49;9;6;4
84927;PMS7003;75189;50.640;19.242;2024-01-06T23:22:57;8;5;3
84927;PMS7003;75189;50.640;19.242;2024-01-06T23:29:03;6;4;2
84927;PMS7003;75189;50.640;19.242;2024-01-06T23:35:29;9;5;3
84927;PMS7003;75189;50.640;19.242;2024-01-06T23:41:37;5;4;3
84927;PMS7003;75189;50.640;19.242;2024-01-06T23:47:43;4;4;3
84927;PMS7003;75189;50.640;19.242;2024-01-06T23:53:50;6;3;1
84927;PMS7003;75189;50.640;19.242;2024-01-06T23:59:58;7;5;2
